FQPB 020500Z 26004KT 9999 SCT020 23/21 Q1018
From batch tds/metars/production/2022/10/2/h05_m24_metars.cache.csv.gz
Observed at (about 1 hour ago)
Identifier FQPB
FQPB 020400Z VRB01KT 9999 FEW020 22/21 Q1017
From batch tds/metars/production/2022/10/2/h04_m25_metars.cache.csv.gz
Observed at (about 2 hours ago)
Identifier FQPB
FQPB 020300Z 27004KT 9999 FEW020 20/20 Q1016
From batch tds/metars/production/2022/10/2/h03_m29_metars.cache.csv.gz
Observed at (about 3 hours ago)
Identifier FQPB
FQPB 020200Z 24003KT 9999 SCT020 20/19 Q1016
From batch tds/metars/production/2022/10/2/h02_m29_metars.cache.csv.gz
Observed at (about 4 hours ago)
Identifier FQPB
FQPB 012300Z 09002KT 9999 SCT020 23/20 Q1016
From batch tds/metars/production/2022/10/1/h23_m23_metars.cache.csv.gz
Observed at (about 7 hours ago)
Identifier FQPB
FQPB 012200Z 09003KT 9999 SCT020 23/20 Q1016
From batch tds/metars/production/2022/10/1/h22_m22_metars.cache.csv.gz
Observed at (about 8 hours ago)
Identifier FQPB
FQPB 012100Z 09003KT 9999 FEW020 24/20 Q1017
From batch tds/metars/production/2022/10/1/h21_m29_metars.cache.csv.gz
Observed at (about 9 hours ago)
Identifier FQPB
FQPB 012000Z 08004KT 9999 FEW020 24/20 Q1017
From batch tds/metars/production/2022/10/1/h20_m27_metars.cache.csv.gz
Observed at (about 10 hours ago)
Identifier FQPB
FQPB 011900Z 08004KT 9999 FEW020 24/20 Q1017
From batch tds/metars/production/2022/10/1/h19_m26_metars.cache.csv.gz
Observed at (about 11 hours ago)
Identifier FQPB
FQPB 011800Z 10005KT 9999 FEW020 24/20 Q1017
From batch tds/metars/production/2022/10/1/h18_m22_metars.cache.csv.gz
Observed at (about 12 hours ago)
Identifier FQPB
FQPB 011700Z 08005KT 9999 FEW020 25/20 Q1017
From batch tds/metars/production/2022/10/1/h17_m58_metars.cache.csv.gz
Observed at (about 13 hours ago)
Identifier FQPB
FQPB 011600Z 08007KT 9999 FEW020 25/20 Q1017
From batch tds/metars/production/2022/10/1/h16_m29_metars.cache.csv.gz
Observed at (about 14 hours ago)
Identifier FQPB
FQPB 011500Z 06007KT 9999 FEW020 27/23 Q1016
From batch tds/metars/production/2022/10/1/h15_m21_metars.cache.csv.gz
Observed at (about 15 hours ago)
Identifier FQPB
FQPB 011400Z 09011KT 060V120 9999 FEW020 28/20 Q1016
From batch tds/metars/production/2022/10/1/h14_m22_metars.cache.csv.gz
Observed at (about 16 hours ago)
Identifier FQPB
FQPB 011300Z 09011KT 060V130 9999 FEW020 28/20 Q1016
From batch tds/metars/production/2022/10/1/h13_m21_metars.cache.csv.gz
Observed at (about 17 hours ago)
Identifier FQPB
FQPB 011200Z 11011KT 9999 FEW020 29/20 Q1016
From batch tds/metars/production/2022/10/1/h12_m23_metars.cache.csv.gz
Observed at (about 18 hours ago)
Identifier FQPB
FQPB 011000Z 11010KT 9999 FEW020 28/21 Q1017
From batch tds/metars/production/2022/10/1/h10_m25_metars.cache.csv.gz
Observed at (about 20 hours ago)
Identifier FQPB
FQPB 010900Z 12009KT 9999 FEW020 28/21 Q1018
From batch tds/metars/production/2022/10/1/h09_m19_metars.cache.csv.gz
Observed at (about 21 hours ago)
Identifier FQPB
FQPB 010800Z 12007KT 9999 FEW020 28/21 Q1019
From batch tds/metars/production/2022/10/1/h08_m29_metars.cache.csv.gz
Observed at (about 22 hours ago)
Identifier FQPB
FQPB 010600Z 29004KT 9999 FEW020 24/21 Q1019
From batch tds/metars/production/2022/10/1/h06_m24_metars.cache.csv.gz
Observed at (1 day ago)
Identifier FQPB
FQPB 010500Z 27005KT 9999 FEW020 22/19 Q1018
From batch tds/metars/production/2022/10/1/h05_m22_metars.cache.csv.gz
Observed at (1 day ago)
Identifier FQPB
FQPB 010400Z 28004KT 9999 FEW020 21/20 Q1017
From batch tds/metars/production/2022/10/1/h04_m29_metars.cache.csv.gz
Observed at (1 day ago)
Identifier FQPB
FQPB 010300Z 26005KT 9999 FEW020 20/20 Q1017
From batch tds/metars/production/2022/10/1/h03_m24_metars.cache.csv.gz
Observed at (1 day ago)
Identifier FQPB
FQPB 010200Z 26005KT 9999 FEW020 20/19 Q1016
From batch tds/metars/production/2022/10/1/h02_m54_metars.cache.csv.gz
Observed at (1 day ago)
Identifier FQPB
FQPB 010100Z 26003KT 9999 FEW020 21/20 Q1016
From batch tds/metars/production/2022/10/1/h01_m26_metars.cache.csv.gz
Observed at (1 day ago)
Identifier FQPB
FQPB 010000Z 28003KT 9999 FEW025 22/20 Q1016
From batch tds/metars/production/2022/10/1/h00_m23_metars.cache.csv.gz
Observed at (1 day ago)
Identifier FQPB
FQPB 302300Z 13003KT 9999 FEW025 22/20 Q1016
From batch tds/metars/production/2022/9/30/h23_m26_metars.cache.csv.gz
Observed at (1 day ago)
Identifier FQPB
FQPB 302100Z 12004KT 9999 FEW025 24/20 Q1017
From batch tds/metars/production/2022/9/30/h21_m28_metars.cache.csv.gz
Observed at (1 day ago)
Identifier FQPB
FQPB 302000Z 11004KT 9999 FEW025 24/20 Q1018
From batch tds/metars/production/2022/9/30/h20_m24_metars.cache.csv.gz
Observed at (1 day ago)
Identifier FQPB
FQPB 301900Z 11004KT 9999 FEW025 24/20 Q1018
From batch tds/metars/production/2022/9/30/h19_m27_metars.cache.csv.gz
Observed at (1 day ago)
Identifier FQPB
FQPB 301700Z 12006KT 9999 FEW025 25/19 Q1017
From batch tds/metars/production/2022/9/30/h17_m27_metars.cache.csv.gz
Observed at (1 day ago)
Identifier FQPB
FQPB 301600Z 13008KT 9999 FEW025 25/19 Q1016
From batch tds/metars/production/2022/9/30/h16_m29_metars.cache.csv.gz
Observed at (1 day ago)
Identifier FQPB
FQPB 301500Z 12008KT 9999 FEW025 25/19 Q1016
From batch tds/metars/production/2022/9/30/h15_m24_metars.cache.csv.gz
Observed at (1 day ago)
Identifier FQPB
FQPB 301400Z 12009KT 9999 FEW025 27/18 Q1015
From batch tds/metars/production/2022/9/30/h14_m27_metars.cache.csv.gz
Observed at (1 day ago)
Identifier FQPB
FQPB 301300Z 11011KT 9999 FEW020 27/20 Q1015
From batch tds/metars/production/2022/9/30/h13_m27_metars.cache.csv.gz
Observed at (1 day ago)
Identifier FQPB
FQPB 301200Z 11011KT 9999 FEW020 28/19 Q1015
From batch tds/metars/production/2022/9/30/h12_m28_metars.cache.csv.gz
Observed at (2 days ago)
Identifier FQPB
FQPB 301100Z 12010KT 9999 FEW020 28/19 Q1016
From batch tds/metars/production/2022/9/30/h11_m29_metars.cache.csv.gz
Observed at (2 days ago)
Identifier FQPB
FQPB 300700Z 12006KT 9999 BKN020 26/20 Q1018
From batch tds/metars/production/2022/9/30/h07_m29_metars.cache.csv.gz
Observed at (2 days ago)
Identifier FQPB
FQPB 300500Z 25004KT 9999 FEW020 22/21 Q1017
From batch tds/metars/production/2022/9/30/h05_m23_metars.cache.csv.gz
Observed at (2 days ago)
Identifier FQPB
FQPB 300400Z 25004KT 9999 FEW020 20/20 Q1016
From batch tds/metars/production/2022/9/30/h04_m20_metars.cache.csv.gz
Observed at (2 days ago)
Identifier FQPB
FQPB 300300Z 24005KT 9999 FEW020 19/19 Q1015
From batch tds/metars/production/2022/9/30/h03_m19_metars.cache.csv.gz
Observed at (2 days ago)
Identifier FQPB
FQPB 300200Z 25006KT 9999 FEW020 20/18 Q1015
From batch tds/metars/production/2022/9/30/h02_m29_metars.cache.csv.gz
Observed at (2 days ago)
Identifier FQPB
FQPB 300100Z 22005KT 9999 FEW020 20/17 Q1015
From batch tds/metars/production/2022/9/30/h01_m27_metars.cache.csv.gz
Observed at (2 days ago)
Identifier FQPB
FQPB 292300Z 14003KT 9999 FEW020 22/19 Q1015
From batch tds/metars/production/2022/9/29/h23_m29_metars.cache.csv.gz
Observed at (2 days ago)
Identifier FQPB
FQPB 292200Z VRB02KT 9999 FEW020 23/20 Q1016
From batch tds/metars/production/2022/9/29/h22_m28_metars.cache.csv.gz
Observed at (2 days ago)
Identifier FQPB
talk